Terminal Aerodrome Forecast
Issued by NWS Hastings, NE

Home | Current Version | Previous Version | Text Only | Print | Product List | Glossary On
Versions: 1 2 3 4 5 6 7 8 9 10 11 12 13 14 15 16 17 18 19 20
000
FTUS43 KGID 020545
TAFGRI
TAF
KGRI 020545Z 0206/0306 31005KT P6SM SCT050
     FM030000 VRB04KT P6SM VCSH SCT110
     FM030200 18004KT P6SM VCSH SCT200=

USA.gov is the U.S. government's official web portal to all federal, state and local government web resources and services.